createdAt,value
2023-03-05T06:02:57.613Z,101980.28
2023-03-05T06:05:28.252Z,101981.31
2023-03-05T06:08:04.620Z,101990.19
2023-03-05T06:10:34.694Z,101982.25
2023-03-05T06:13:11.535Z,101981.47
2023-03-05T06:15:41.773Z,101978.91
2023-03-05T06:18:20.599Z,101986.16
2023-03-05T06:21:04.659Z,101984.59
2023-03-05T06:23:35.319Z,101984.69
2023-03-05T06:26:15.580Z,101973.28
2023-03-05T06:28:46.048Z,101977.69
2023-03-05T06:31:25.825Z,101983.84
2023-03-05T06:34:09.678Z,101985.72
2023-03-05T06:36:43.716Z,101981.38
2023-03-05T06:39:20.606Z,101987.22
2023-03-05T06:42:00.636Z,101986.31
2023-03-05T06:44:30.921Z,101993.91
2023-03-05T06:47:07.671Z,101988.47
2023-03-05T06:49:41.374Z,101983.03
2023-03-05T06:52:19.991Z,101978.41
2023-03-05T06:54:50.272Z,101974.69
2023-03-05T06:57:26.696Z,101971.78
2023-03-05T07:00:03.663Z,101977.75
2023-03-05T07:02:34.422Z,101975.59
2023-03-05T07:05:14.674Z,101971.78
2023-03-05T07:07:44.692Z,101973.25
2023-03-05T07:10:21.599Z,101973.09
2023-03-05T07:12:51.705Z,101974.72
2023-03-05T07:15:28.616Z,101967.63
2023-03-05T07:18:05.599Z,101978.22
2023-03-05T07:20:40.407Z,101984.25
2023-03-05T07:23:16.649Z,101979.66
2023-03-05T07:25:46.639Z,101987.50
2023-03-05T07:28:23.651Z,101977.59
2023-03-05T07:31:06.728Z,101979.22
2023-03-05T07:33:37.918Z,101977.44
2023-03-05T07:36:18.683Z,101982.56
2023-03-05T07:38:49.200Z,101974.44
2023-03-05T07:41:29.670Z,101968.91
2023-03-05T07:44:03.555Z,101968.91
2023-03-05T07:46:43.678Z,101965.13
2023-03-05T07:49:17.583Z,101964.34
2023-03-05T07:51:56.748Z,101963.91
2023-03-05T07:54:26.805Z,101964.41
2023-03-05T07:57:04.739Z,101949.72
2023-03-05T07:59:35.276Z,101952.41
2023-03-05T08:02:12.784Z,101945.72
2023-03-05T08:04:43.349Z,101953.88
2023-03-05T08:07:24.701Z,101953.34
2023-03-05T08:09:54.679Z,101950.22
2023-03-05T08:12:31.964Z,101955.72
2023-03-05T08:15:02.172Z,101950.78
2023-03-05T08:17:38.692Z,101945.03
2023-03-05T08:20:11.820Z,101940.00
2023-03-05T08:22:50.711Z,101933.41
2023-03-05T08:25:21.275Z,101933.38
2023-03-05T08:27:58.865Z,101935.44
2023-03-05T08:30:29.723Z,101940.81
2023-03-05T08:33:06.789Z,101934.84
2023-03-05T08:35:36.971Z,101931.81
2023-03-05T08:38:16.735Z,101930.63
2023-03-05T08:40:46.901Z,101919.84
2023-03-05T08:43:23.755Z,101915.84
2023-03-05T08:45:54.087Z,101912.44
2023-03-05T08:48:30.774Z,101913.19
2023-03-05T08:51:00.895Z,101910.25
2023-03-05T08:53:39.736Z,101910.03
2023-03-05T08:56:18.768Z,101906.31
2023-03-05T08:58:49.381Z,101909.81
2023-03-05T09:01:25.856Z,101905.56
2023-03-05T09:03:55.952Z,101901.34
2023-03-05T09:06:32.756Z,101907.66
2023-03-05T09:09:05.378Z,101909.78
2023-03-05T09:11:42.840Z,101894.06
2023-03-05T09:14:13.855Z,101902.97
2023-03-05T09:16:50.875Z,101897.69
2023-03-05T09:19:20.944Z,101893.97
2023-03-05T09:21:57.822Z,101899.94
2023-03-05T09:24:37.830Z,101897.81
2023-03-05T09:27:08.603Z,101896.16
2023-03-05T09:29:44.885Z,101897.19
2023-03-05T09:32:21.910Z,101893.06
2023-03-05T09:34:52.028Z,101895.63
2023-03-05T09:37:28.840Z,101896.19
2023-03-05T09:40:01.610Z,101897.03
2023-03-05T09:42:54.848Z,101894.50
2023-03-05T09:45:30.771Z,101892.88
2023-03-05T09:48:21.875Z,101881.84
2023-03-05T09:51:03.850Z,101881.13
2023-03-05T09:53:41.987Z,101876.47
2023-03-05T09:56:26.820Z,101868.47
2023-03-05T09:59:00.563Z,101866.19
2023-03-05T10:01:44.892Z,101868.91
2023-03-05T10:04:19.270Z,101868.31
2023-03-05T10:07:02.838Z,101863.94
2023-03-05T10:09:48.592Z,101862.19
2023-03-05T10:12:35.882Z,101859.06
2023-03-05T10:15:06.295Z,101856.91
2023-03-05T10:18:13.869Z,101852.53
2023-03-05T10:21:01.519Z,101847.84
2023-03-05T10:24:02.854Z,101848.09
2023-03-05T10:27:08.003Z,101846.31
2023-03-05T10:30:06.774Z,101842.31
2023-03-05T10:32:58.871Z,101840.34
2023-03-05T10:35:54.126Z,101834.66
2023-03-05T10:38:54.886Z,101832.41
2023-03-05T10:41:38.935Z,101827.59
2023-03-05T10:44:16.663Z,101824.94
2023-03-05T10:46:57.862Z,101827.56
2023-03-05T10:49:39.970Z,101823.22
2023-03-05T10:52:18.756Z,101823.16
2023-03-05T10:54:55.020Z,101818.28
2023-03-05T10:57:33.950Z,101813.94
2023-03-05T11:00:20.963Z,101809.97
2023-03-05T11:03:10.981Z,101807.66
2023-03-05T11:05:56.904Z,101805.72
2023-03-05T11:08:35.374Z,101796.28
2023-03-05T11:11:26.986Z,101793.13
2023-03-05T11:14:07.046Z,101782.22
2023-03-05T11:16:49.613Z,101780.56
2023-03-05T11:19:39.944Z,101782.34
2023-03-05T11:22:25.943Z,101770.78
2023-03-05T11:25:19.156Z,101777.97
2023-03-05T11:28:00.982Z,101761.94
2023-03-05T11:30:39.998Z,101756.03
2023-03-05T11:33:12.702Z,101764.81
2023-03-05T11:35:53.054Z,101756.59
2023-03-05T11:38:26.497Z,101754.84
2023-03-05T11:41:06.056Z,101752.50
2023-03-05T11:43:38.792Z,101754.50
2023-03-05T11:46:15.022Z,101746.88
2023-03-05T11:48:54.956Z,101736.34
2023-03-05T11:51:34.478Z,101740.34
2023-03-05T11:54:21.993Z,101730.03
2023-03-05T11:57:00.020Z,101722.34
2023-03-05T11:59:34.688Z,101719.13
2023-03-05T12:02:11.025Z,101717.44
2023-03-05T12:04:48.105Z,101710.97
2023-03-05T12:07:26.861Z,101699.69
2023-03-05T12:10:04.986Z,101698.72
2023-03-05T12:12:51.143Z,101701.09
2023-03-05T12:15:45.103Z,101691.38
2023-03-05T12:18:40.732Z,101689.53
2023-03-05T12:21:26.091Z,101682.91
2023-03-05T12:24:02.085Z,101680.84
2023-03-05T12:27:18.198Z,101676.00
2023-03-05T12:29:58.058Z,101665.47
2023-03-05T12:33:01.420Z,101663.97
2023-03-05T12:35:43.128Z,101662.78
2023-03-05T12:38:41.490Z,101651.78
2023-03-05T12:41:43.011Z,101651.50
2023-03-05T12:44:31.116Z,101645.91
2023-03-05T12:47:28.810Z,101642.50
